Time;durP1;ratioP1;P1;durP2;ratioP2;P2;SDS_P1;SDS_P2;PMS_P1;PMS_P2;Temp;Humidity;BMP_temperature;BMP_pressure;BME280_temperature;BME280_humidity;BME280_pressure;Samples;Min_cycle;Max_cycle;Signal;HPM_P1;HPM_P2
2023/10/25 00:01:26;;;;;;;1.42;1.33;;;;;;;7.53;100.00;97485.81;4121013;28;20217;-45
2023/10/25 00:03:28;;;;;;;2.03;1.92;;;;;;;7.52;100.00;97484.16;4119733;28;20722;-45
2023/10/25 00:05:32;;;;;;;1.92;1.83;;;;;;;7.71;100.00;97480.84;4102827;28;20217;-45
2023/10/25 00:07:34;;;;;;;1.20;1.10;;;;;;;7.62;100.00;97478.84;4102949;28;20207;-46
2023/10/25 00:09:36;;;;;;;1.70;1.60;;;;;;;7.61;100.00;97477.19;4117804;28;20282;-45
2023/10/25 00:11:38;;;;;;;1.77;1.65;;;;;;;7.57;100.00;97482.31;4103784;28;20210;-45
2023/10/25 00:13:39;;;;;;;1.27;1.25;;;;;;;7.58;100.00;97477.69;4116587;28;20213;-46
2023/10/25 00:15:41;;;;;;;1.52;1.42;;;;;;;7.51;100.00;97477.06;4102445;28;20246;-44
2023/10/25 00:17:43;;;;;;;1.52;1.05;;;;;;;7.52;100.00;97486.88;4100866;28;20298;-44
2023/10/25 00:19:45;;;;;;;1.15;1.15;;;;;;;7.63;100.00;97485.91;4101562;28;20654;-44
2023/10/25 00:21:46;;;;;;;1.38;1.27;;;;;;;7.52;100.00;97479.56;4116887;28;20210;-44
2023/10/25 00:23:48;;;;;;;1.20;1.10;;;;;;;7.49;100.00;97471.06;4135214;28;20284;-45
2023/10/25 00:25:51;;;;;;;2.03;1.38;;;;;;;7.51;100.00;97472.47;4103331;28;20215;-44
2023/10/25 00:27:52;;;;;;;1.35;1.25;;;;;;;7.48;100.00;97474.88;4102363;28;20597;-44
2023/10/25 00:29:54;;;;;;;1.73;1.10;;;;;;;7.49;100.00;97471.88;4112737;28;20217;-44
2023/10/25 00:31:56;;;;;;;1.45;1.38;;;;;;;7.47;100.00;97470.50;4117312;28;20218;-44
2023/10/25 00:33:58;;;;;;;1.23;1.13;;;;;;;7.43;100.00;97474.81;4132596;28;20244;-44
2023/10/25 00:36:00;;;;;;;1.75;1.40;;;;;;;7.41;100.00;97466.09;4103788;28;20218;-44
2023/10/25 00:38:01;;;;;;;3.28;1.08;;;;;;;7.42;100.00;97473.19;4113298;28;20218;-45
2023/10/25 00:40:04;;;;;;;1.70;1.45;;;;;;;7.44;100.00;97477.28;4102526;28;20218;-44
2023/10/25 00:42:06;;;;;;;1.42;1.33;;;;;;;7.44;100.00;97471.03;4131277;28;20305;-44
2023/10/25 00:44:07;;;;;;;1.10;1.10;;;;;;;7.50;100.00;97468.06;4121385;28;20257;-44
2023/10/25 00:46:14;;;;;;;1.95;1.85;;;;;;;7.43;100.00;97467.47;4100011;28;20214;-44
2023/10/25 00:48:16;;;;;;;1.23;1.15;;;;;;;7.39;100.00;97465.50;4130206;28;20210;-44
2023/10/25 00:50:18;;;;;;;1.50;1.40;;;;;;;7.40;100.00;97464.44;4102684;28;20207;-45
2023/10/25 00:52:20;;;;;;;2.28;1.80;;;;;;;7.45;100.00;97461.78;4135647;28;20288;-45
2023/10/25 00:54:22;;;;;;;1.33;1.23;;;;;;;7.44;100.00;97460.97;4117483;28;20265;-44
2023/10/25 00:56:26;;;;;;;0.88;0.88;;;;;;;7.49;100.00;97468.34;4118736;28;21223;-45
2023/10/25 00:58:28;;;;;;;0.90;0.90;;;;;;;7.47;100.00;97462.31;4119269;28;20665;-45
2023/10/25 01:00:30;;;;;;;1.77;1.10;;;;;;;7.55;100.00;97464.63;4120242;28;20687;-45
2023/10/25 01:02:31;;;;;;;1.48;1.38;;;;;;;7.58;100.00;97461.38;4116984;28;20674;-45
2023/10/25 01:04:34;;;;;;;1.58;1.48;;;;;;;7.62;100.00;97467.94;4133817;28;20276;-44
2023/10/25 01:06:35;;;;;;;1.00;1.00;;;;;;;7.46;100.00;97455.25;4102707;28;20207;-44
2023/10/25 01:08:37;;;;;;;1.60;1.50;;;;;;;7.46;100.00;97457.97;4137244;28;20210;-45
2023/10/25 01:10:39;;;;;;;1.40;1.30;;;;;;;7.43;100.00;97458.50;4106281;28;20269;-45
2023/10/25 01:12:41;;;;;;;1.10;1.10;;;;;;;7.43;100.00;97458.50;4118467;28;20748;-45
2023/10/25 01:14:42;;;;;;;1.15;1.00;;;;;;;7.42;100.00;97462.28;4119143;28;20281;-45
2023/10/25 01:16:44;;;;;;;1.08;1.02;;;;;;;7.42;100.00;97462.28;4121140;28;20253;-46
2023/10/25 01:18:46;;;;;;;1.10;1.10;;;;;;;7.47;100.00;97462.31;4120121;28;20843;-45
2023/10/25 01:20:48;;;;;;;1.40;1.30;;;;;;;7.46;100.00;97447.91;4109606;28;20225;-44
2023/10/25 01:22:50;;;;;;;1.50;1.48;;;;;;;7.46;100.00;97453.34;4088067;28;20817;-45
2023/10/25 01:24:52;;;;;;;1.05;1.05;;;;;;;7.47;100.00;97456.88;4104429;28;20266;-45
2023/10/25 01:26:53;;;;;;;1.92;1.50;;;;;;;7.50;100.00;97448.22;4104596;28;20219;-45
2023/10/25 01:28:55;;;;;;;1.80;1.70;;;;;;;7.47;100.00;97449.56;4102906;28;20211;-44
2023/10/25 01:30:57;;;;;;;1.20;1.15;;;;;;;7.51;100.00;97449.84;4134458;28;20209;-45
2023/10/25 01:32:59;;;;;;;1.20;1.20;;;;;;;7.44;100.00;97443.81;4103752;28;20274;-45
2023/10/25 01:35:01;;;;;;;1.27;1.17;;;;;;;7.40;100.00;97445.38;4109529;28;20326;-44
2023/10/25 01:37:03;;;;;;;1.85;1.20;;;;;;;7.38;100.00;97439.38;4103545;28;20216;-45
2023/10/25 01:39:05;;;;;;;1.23;1.23;;;;;;;7.37;100.00;97443.19;4119695;28;20206;-45
2023/10/25 01:41:13;;;;;;;1.15;1.02;;;;;;;7.36;100.00;97447.00;4137520;28;20275;-45
2023/10/25 01:43:15;;;;;;;1.65;1.52;;;;;;;7.36;100.00;97447.78;4088310;28;20214;-46
2023/10/25 01:45:18;;;;;;;1.55;1.40;;;;;;;7.38;100.00;97453.81;4134071;28;20251;-45
2023/10/25 01:47:20;;;;;;;1.15;1.13;;;;;;;7.38;100.00;97450.28;4100857;28;20203;-45
2023/10/25 01:49:22;;;;;;;1.67;1.48;;;;;;;7.40;100.00;97448.09;4086690;28;22531;-45
2023/10/25 01:51:23;;;;;;;1.33;1.23;;;;;;;7.45;100.00;97450.88;4136848;28;20610;-45
2023/10/25 01:53:25;;;;;;;2.05;1.33;;;;;;;7.44;100.00;97450.09;4120582;28;20275;-45
2023/10/25 01:55:27;;;;;;;1.63;1.52;;;;;;;7.39;100.00;97441.03;4118757;28;20609;-45
2023/10/25 01:57:29;;;;;;;1.90;1.80;;;;;;;7.39;100.00;97432.84;4103510;28;20219;-44
2023/10/25 01:59:31;;;;;;;1.92;1.58;;;;;;;7.44;100.00;97433.75;4105588;28;20267;-45
2023/10/25 02:01:32;;;;;;;1.98;1.88;;;;;;;7.45;100.00;97418.22;4103380;28;20212;-44
2023/10/25 02:03:34;;;;;;;2.08;1.55;;;;;;;7.38;100.00;97423.06;4119868;28;20219;-45
2023/10/25 02:05:36;;;;;;;1.95;1.23;;;;;;;7.48;100.00;97425.91;4103024;28;20242;-45
2023/10/25 02:07:39;;;;;;;1.65;1.55;;;;;;;7.27;100.00;97422.13;4120824;28;20210;-45
2023/10/25 02:09:40;;;;;;;1.48;1.38;;;;;;;7.16;100.00;97414.13;4100705;28;20226;-44
2023/10/25 02:11:42;;;;;;;1.15;1.15;;;;;;;7.13;100.00;97414.63;4134816;28;21037;-45
2023/10/25 02:13:44;;;;;;;1.27;1.27;;;;;;;7.05;100.00;97406.91;4103461;28;20207;-45
2023/10/25 02:15:49;;;;;;;1.35;1.20;;;;;;;6.97;100.00;97410.91;4104802;28;20207;-45
2023/10/25 02:17:51;;;;;;;1.80;1.70;;;;;;;6.94;100.00;97422.28;4103893;28;20249;-45
2023/10/25 02:19:52;;;;;;;2.80;1.38;;;;;;;6.92;100.00;97413.59;4100415;28;20227;-45
2023/10/25 02:21:54;;;;;;;1.98;1.88;;;;;;;7.01;100.00;97412.03;4123366;28;20672;-45
2023/10/25 02:23:56;;;;;;;12.93;2.00;;;;;;;6.96;100.00;97414.69;4119778;28;20238;-46
2023/10/25 02:25:57;;;;;;;0.95;0.95;;;;;;;6.99;100.00;97405.22;4136361;28;20269;-47
2023/10/25 02:27:59;;;;;;;1.40;1.30;;;;;;;6.93;100.00;97398.91;4119944;28;20253;-45
2023/10/25 02:30:01;;;;;;;1.75;1.65;;;;;;;6.99;100.00;97403.31;4132662;28;20214;-45
2023/10/25 02:32:07;;;;;;;2.20;1.65;;;;;;;7.03;100.00;97392.75;4103629;28;20266;-44
2023/10/25 02:34:09;;;;;;;1.48;1.38;;;;;;;7.00;100.00;97385.09;4118080;28;20226;-45
2023/10/25 02:36:11;;;;;;;1.80;1.70;;;;;;;6.92;100.00;97380.13;4117871;28;20686;-45
2023/10/25 02:38:13;;;;;;;1.52;1.42;;;;;;;6.84;100.00;97388.72;4135059;28;20214;-45
2023/10/25 02:40:14;;;;;;;1.40;1.30;;;;;;;6.81;100.00;97381.91;4104758;28;20645;-45
2023/10/25 02:42:16;;;;;;;1.80;1.70;;;;;;;6.84;100.00;97384.13;4134331;28;20301;-45
2023/10/25 02:44:20;;;;;;;1.55;1.40;;;;;;;6.80;100.00;97382.97;4119547;28;20244;-45
2023/10/25 02:46:22;;;;;;;1.73;1.63;;;;;;;6.83;100.00;97381.66;4117936;28;20655;-45
2023/10/25 02:48:24;;;;;;;2.17;1.60;;;;;;;6.79;100.00;97375.06;4121099;28;20210;-45
2023/10/25 02:50:26;;;;;;;2.25;2.05;;;;;;;6.75;100.00;97365.78;4119507;28;20546;-45
2023/10/25 02:52:27;;;;;;;2.10;1.90;;;;;;;6.79;100.00;97364.19;4103677;28;20605;-45
2023/10/25 02:54:29;;;;;;;2.00;1.48;;;;;;;6.75;100.00;97360.34;4137385;28;20300;-45
2023/10/25 02:56:31;;;;;;;1.90;1.80;;;;;;;6.80;100.00;97352.25;4104112;28;20661;-46
2023/10/25 02:58:33;;;;;;;3.55;2.00;;;;;;;6.67;100.00;97358.06;4119280;28;20210;-45
2023/10/25 03:00:36;;;;;;;1.83;1.70;;;;;;;6.66;100.00;97359.16;4101074;28;20217;-45
2023/10/25 03:02:37;;;;;;;1.42;1.33;;;;;;;6.69;100.00;97350.50;4136074;28;20213;-45
2023/10/25 03:04:39;;;;;;;1.80;1.70;;;;;;;6.64;100.00;97348.56;4134248;28;20238;-45
2023/10/25 03:06:41;;;;;;;1.65;1.50;;;;;;;6.59;100.00;97344.94;4105264;28;20251;-45
2023/10/25 03:08:43;;;;;;;0.90;0.90;;;;;;;6.54;100.00;97334.81;4118108;28;20816;-45
2023/10/25 03:10:45;;;;;;;1.40;1.30;;;;;;;6.51;100.00;97345.38;4118456;28;20203;-45
2023/10/25 03:12:46;;;;;;;1.58;1.48;;;;;;;6.49;100.00;97336.66;4117940;28;20202;-45
2023/10/25 03:14:48;;;;;;;1.77;1.35;;;;;;;6.56;100.00;97326.44;4137304;28;20279;-45
2023/10/25 03:16:51;;;;;;;1.33;1.20;;;;;;;6.56;100.00;97331.88;4101399;28;20215;-45
2023/10/25 03:18:53;;;;;;;1.98;1.88;;;;;;;6.44;100.00;97323.00;4090679;28;20212;-45
2023/10/25 03:20:55;;;;;;;1.05;0.98;;;;;;;6.40;100.00;97324.59;4101220;28;20211;-45
2023/10/25 03:22:57;;;;;;;1.17;1.15;;;;;;;6.38;100.00;97324.03;4116194;28;20210;-46
2023/10/25 03:24:58;;;;;;;1.50;1.40;;;;;;;6.42;100.00;97336.03;4101816;28;20641;-45
2023/10/25 03:27:00;;;;;;;1.20;1.10;;;;;;;6.38;100.00;97330.28;4101466;28;20211;-45
2023/10/25 03:29:02;;;;;;;1.85;1.23;;;;;;;6.36;100.00;97328.91;4103725;28;20246;-45
2023/10/25 03:31:05;;;;;;;1.35;1.30;;;;;;;6.41;100.00;97324.34;4101978;28;20275;-46
2023/10/25 03:33:07;;;;;;;1.38;1.27;;;;;;;6.32;100.00;97320.44;4102454;28;20214;-45
2023/10/25 03:35:09;;;;;;;9.90;1.33;;;;;;;6.38;100.00;97321.31;4116298;28;20237;-45
2023/10/25 03:37:11;;;;;;;1.63;1.52;;;;;;;6.34;100.00;97328.31;4119601;28;20211;-47
2023/10/25 03:39:15;;;;;;;1.58;1.35;;;;;;;6.31;100.00;97324.22;4117861;28;20326;-45
2023/10/25 03:41:17;;;;;;;1.67;1.40;;;;;;;6.34;100.00;97320.16;4114618;28;20232;-46
2023/10/25 03:43:19;;;;;;;1.10;1.10;;;;;;;6.31;100.00;97313.38;4134493;28;20762;-45
2023/10/25 03:45:21;;;;;;;21.13;2.15;;;;;;;6.29;100.00;97317.41;4117545;28;20226;-46
2023/10/25 03:47:22;;;;;;;1.70;1.60;;;;;;;6.25;100.00;97310.81;4134286;28;20596;-45
2023/10/25 03:49:24;;;;;;;1.40;1.30;;;;;;;6.23;100.00;97310.25;4116834;28;20206;-45
2023/10/25 03:51:26;;;;;;;1.45;1.38;;;;;;;6.17;100.00;97303.91;4086259;28;20570;-44
2023/10/25 03:53:28;;;;;;;1.65;1.52;;;;;;;6.17;100.00;97300.41;4131950;28;20244;-45
2023/10/25 03:55:30;;;;;;;1.63;1.55;;;;;;;6.14;100.00;97303.59;4116144;28;20272;-45
2023/10/25 03:57:31;;;;;;;1.17;1.17;;;;;;;6.11;100.00;97302.25;4117645;28;20217;-45
2023/10/25 03:59:33;;;;;;;1.50;1.40;;;;;;;6.16;100.00;97299.56;4100266;28;20671;-45
2023/10/25 04:01:35;;;;;;;1.80;1.65;;;;;;;6.14;100.00;97290.03;4101763;28;21049;-45
2023/10/25 04:03:37;;;;;;;1.25;1.25;;;;;;;6.11;100.00;97285.94;4118350;28;20324;-44
2023/10/25 04:05:39;;;;;;;1.95;1.80;;;;;;;6.08;100.00;97282.91;4116381;28;20214;-44
2023/10/25 04:07:41;;;;;;;1.40;1.30;;;;;;;6.07;100.00;97287.50;4134032;28;20243;-44
2023/10/25 04:09:43;;;;;;;1.30;1.20;;;;;;;6.01;100.00;97284.97;4118585;28;20675;-45
2023/10/25 04:11:45;;;;;;;1.63;1.58;;;;;;;6.08;100.00;97269.34;4119593;28;20248;-45
2023/10/25 04:13:46;;;;;;;1.33;1.33;;;;;;;5.99;100.00;97271.66;4120991;28;20257;-45
2023/10/25 04:16:02;;;;;;;1.92;1.83;;;;;;;6.01;100.00;97274.09;4103654;28;20545;-45
2023/10/25 04:18:09;;;;;;;1.48;1.40;;;;;;;6.02;100.00;97268.44;4099453;28;20206;-45
2023/10/25 04:20:11;;;;;;;3.80;2.88;;;;;;;5.95;100.00;97269.72;4133767;28;20220;-45
2023/10/25 04:22:13;;;;;;;1.98;1.88;;;;;;;6.00;100.00;97272.47;4120011;28;20216;-44
2023/10/25 04:24:15;;;;;;;1.65;1.33;;;;;;;5.93;100.00;97269.13;4103315;28;20325;-46
2023/10/25 04:26:17;;;;;;;1.10;1.10;;;;;;;5.91;100.00;97269.38;4104884;28;20305;-45
2023/10/25 04:28:18;;;;;;;1.50;1.40;;;;;;;5.86;100.00;97268.47;4120300;28;20266;-46
2023/10/25 04:30:22;;;;;;;1.52;1.42;;;;;;;5.82;100.00;97270.06;4135635;28;20228;-46
2023/10/25 04:32:23;;;;;;;1.95;1.85;;;;;;;5.77;100.00;97261.81;4137941;28;20206;-45
2023/10/25 04:34:25;;;;;;;1.42;1.40;;;;;;;5.75;100.00;97259.34;4119168;28;20231;-45
2023/10/25 04:36:27;;;;;;;1.50;1.40;;;;;;;5.78;100.00;97263.47;4119967;28;20252;-45
2023/10/25 04:38:29;;;;;;;27.40;1.77;;;;;;;5.76;100.00;97265.59;4119119;28;20221;-45
2023/10/25 04:40:31;;;;;;;1.50;1.40;;;;;;;5.81;100.00;97257.53;4117338;28;20657;-45
2023/10/25 04:42:33;;;;;;;1.83;1.73;;;;;;;5.92;100.00;97251.19;4119025;28;20210;-45
2023/10/25 04:44:34;;;;;;;1.85;1.75;;;;;;;5.89;100.00;97254.41;4108909;28;21000;-46
2023/10/25 04:46:36;;;;;;;3.67;2.35;;;;;;;5.73;100.00;97245.22;4135636;28;20210;-45
2023/10/25 04:48:38;;;;;;;1.58;1.40;;;;;;;5.70;100.00;97251.13;4136473;28;20313;-45
2023/10/25 04:50:40;;;;;;;1.58;1.48;;;;;;;5.69;100.00;97248.69;4101661;28;20207;-46
2023/10/25 04:52:41;;;;;;;2.13;2.03;;;;;;;5.82;100.00;97245.66;4119199;28;20218;-45
2023/10/25 04:54:43;;;;;;;1.70;1.60;;;;;;;5.73;100.00;97242.50;4103265;28;20226;-45
2023/10/25 04:56:45;;;;;;;1.48;1.38;;;;;;;5.78;100.00;97241.75;4105440;28;20292;-44
2023/10/25 04:58:47;;;;;;;1.48;1.38;;;;;;;5.74;100.00;97240.59;4103138;28;20214;-46
2023/10/25 05:00:49;;;;;;;1.50;1.40;;;;;;;5.68;100.00;97231.56;4103214;28;20249;-45
2023/10/25 05:02:50;;;;;;;1.05;1.05;;;;;;;5.71;100.00;97241.09;4115188;28;20220;-45
2023/10/25 05:04:52;;;;;;;0.77;0.77;;;;;;;5.59;100.00;97230.38;4100730;28;20713;-45
2023/10/25 05:06:54;;;;;;;2.50;1.73;;;;;;;5.72;100.00;97231.88;4102028;28;20226;-45
2023/10/25 05:08:56;;;;;;;1.27;1.17;;;;;;;5.65;100.00;97236.69;4135508;28;20325;-45
2023/10/25 05:11:05;;;;;;;0.98;0.98;;;;;;;5.74;100.00;97227.03;4119420;28;20249;-45
2023/10/25 05:13:07;;;;;;;0.80;0.80;;;;;;;5.71;100.00;97220.22;4134178;28;20288;-45
2023/10/25 05:15:18;;;;;;;1.00;1.00;;;;;;;5.68;100.00;97226.16;4118864;28;20786;-45
2023/10/25 05:17:20;;;;;;;0.95;0.88;;;;;;;5.67;100.00;97223.69;4120343;28;20237;-45
2023/10/25 05:19:22;;;;;;;1.40;1.30;;;;;;;5.61;100.00;97221.97;4136190;28;20217;-45
2023/10/25 05:21:27;;;;;;;1.45;1.05;;;;;;;5.68;100.00;97209.03;4118099;28;20208;-45
2023/10/25 05:23:33;;;;;;;1.27;1.27;;;;;;;5.67;100.00;97191.13;4119414;28;20226;-45
2023/10/25 05:25:36;;;;;;;1.65;0.95;;;;;;;5.36;100.00;97184.47;4119355;28;20224;-47
2023/10/25 05:27:38;;;;;;;1.00;1.00;;;;;;;5.43;100.00;97181.59;4117412;28;20218;-45
2023/10/25 05:29:40;;;;;;;1.42;1.40;;;;;;;5.35;100.00;97182.81;4117563;28;20845;-45
2023/10/25 05:31:43;;;;;;;1.10;1.10;;;;;;;5.43;100.00;97181.59;4117872;28;20219;-45
2023/10/25 05:33:45;;;;;;;1.33;1.33;;;;;;;5.46;100.00;97176.47;4135695;28;20220;-45
2023/10/25 05:35:47;;;;;;;1.52;1.45;;;;;;;5.53;100.00;97170.84;4086176;28;20224;-46
2023/10/25 05:37:49;;;;;;;1.02;1.02;;;;;;;5.50;100.00;97174.88;4101511;28;20214;-46
2023/10/25 05:39:51;;;;;;;1.40;1.30;;;;;;;5.50;100.00;97171.38;4118037;28;20613;-45
2023/10/25 05:41:53;;;;;;;1.40;1.35;;;;;;;5.56;100.00;97159.53;4118189;28;20630;-46
2023/10/25 05:44:10;;;;;;;1.35;1.35;;;;;;;5.55;100.00;97155.19;4102530;28;20226;-45
2023/10/25 05:46:12;;;;;;;2.75;1.00;;;;;;;5.54;100.00;97154.34;4117982;28;20214;-45
2023/10/25 05:48:15;;;;;;;1.20;1.20;;;;;;;5.57;100.00;97150.31;4104513;28;20208;-46
2023/10/25 05:50:17;;;;;;;1.25;1.20;;;;;;;5.61;100.00;97159.56;4114790;28;20294;-45
2023/10/25 05:52:23;;;;;;;1.90;1.77;;;;;;;5.63;100.00;97155.53;4133756;28;20264;-45
2023/10/25 05:54:25;;;;;;;1.10;1.10;;;;;;;5.65;100.00;97166.13;4119155;28;20274;-45
2023/10/25 05:56:27;;;;;;;1.42;1.33;;;;;;;5.68;100.00;97162.91;4102273;28;20210;-45
2023/10/25 05:58:29;;;;;;;1.80;1.70;;;;;;;5.72;100.00;97150.50;4102472;28;20211;-45
2023/10/25 06:00:31;;;;;;;2.42;2.20;;;;;;;5.77;100.00;97158.69;4118301;28;20242;-45
2023/10/25 06:02:34;;;;;;;2.47;2.22;;;;;;;5.78;100.00;97144.88;4117437;28;20203;-45
2023/10/25 06:04:40;;;;;;;4.70;3.38;;;;;;;5.84;100.00;97138.44;4120229;28;20269;-45
2023/10/25 06:06:44;;;;;;;1.52;1.42;;;;;;;6.00;100.00;97137.56;4102387;28;20261;-45
2023/10/25 06:08:46;;;;;;;1.75;1.65;;;;;;;5.97;100.00;97138.06;4135287;28;20248;-45
2023/10/25 06:10:50;;;;;;;3.08;1.48;;;;;;;5.88;100.00;97144.22;4120424;28;20210;-45
2023/10/25 06:12:52;;;;;;;1.25;1.15;;;;;;;5.88;100.00;97133.38;4116100;28;20755;-46
2023/10/25 06:14:54;;;;;;;1.08;1.08;;;;;;;5.95;100.00;97125.84;4118046;28;20230;-45
2023/10/25 06:16:57;;;;;;;1.52;1.42;;;;;;;5.96;100.00;97122.03;4117041;28;20214;-45
2023/10/25 06:18:59;;;;;;;1.65;1.30;;;;;;;6.03;100.00;97114.53;4084434;28;20989;-45
2023/10/25 06:21:01;;;;;;;1.17;1.17;;;;;;;5.99;100.00;97113.38;4116197;28;20217;-46
2023/10/25 06:23:03;;;;;;;1.58;1.48;;;;;;;5.92;100.00;97115.47;4097344;28;20665;-45
2023/10/25 06:25:05;;;;;;;1.02;1.02;;;;;;;5.90;100.00;97114.91;4101510;28;20230;-46
2023/10/25 06:27:07;;;;;;;1.08;1.08;;;;;;;5.98;100.00;97109.03;4134561;28;20595;-45
2023/10/25 06:29:08;;;;;;;0.80;0.80;;;;;;;5.95;100.00;97106.84;4131965;28;20255;-45
2023/10/25 06:31:11;;;;;;;1.65;1.40;;;;;;;6.00;100.00;97098.72;4133967;28;20250;-45
2023/10/25 06:33:13;;;;;;;1.00;1.00;;;;;;;5.96;100.00;97100.31;4116956;28;20206;-46
2023/10/25 06:35:15;;;;;;;0.90;0.90;;;;;;;5.94;100.00;97100.56;4118252;28;20301;-45
2023/10/25 06:37:17;;;;;;;2.00;1.77;;;;;;;5.93;100.00;97098.09;4136816;28;20205;-45
2023/10/25 06:39:18;;;;;;;1.50;1.40;;;;;;;5.98;100.00;97100.88;4118446;28;20217;-46
2023/10/25 06:41:23;;;;;;;1.13;1.10;;;;;;;5.94;100.00;97099.75;4103094;28;20309;-45
2023/10/25 06:43:28;;;;;;;1.05;1.05;;;;;;;5.95;100.00;97090.56;4102070;28;20266;-45
2023/10/25 06:45:31;;;;;;;0.90;0.90;;;;;;;6.01;100.00;97094.94;4101245;28;20234;-45
2023/10/25 06:47:33;;;;;;;1.10;1.10;;;;;;;6.06;100.00;97093.09;4116459;28;20747;-46
2023/10/25 06:49:35;;;;;;;2.20;2.00;;;;;;;6.04;100.00;97094.44;4134736;28;20209;-45
2023/10/25 06:51:37;;;;;;;1.55;1.48;;;;;;;6.09;100.00;97091.78;4118723;28;20210;-46
2023/10/25 06:53:39;;;;;;;1.08;1.08;;;;;;;6.09;100.00;97091.78;4133662;28;20252;-45
2023/10/25 06:55:41;;;;;;;1.05;1.05;;;;;;;6.14;100.00;97084.50;4119864;28;20561;-46
2023/10/25 06:57:43;;;;;;;1.83;1.73;;;;;;;6.25;100.00;97074.53;4098344;28;20216;-45
2023/10/25 06:59:46;;;;;;;2.25;2.08;;;;;;;6.22;100.00;97075.06;4135262;28;20703;-45
2023/10/25 07:01:53;;;;;;;2.10;2.00;;;;;;;6.32;100.00;97084.13;4134729;28;20197;-46
2023/10/25 07:03:58;;;;;;;1.90;1.80;;;;;;;6.30;100.00;97066.44;4120396;28;20316;-46
2023/10/25 07:06:03;;;;;;;1.60;1.52;;;;;;;6.24;100.00;97070.19;4104831;28;20212;-45
2023/10/25 07:08:05;;;;;;;1.20;1.13;;;;;;;6.31;100.00;97065.38;4119505;28;20744;-45
2023/10/25 07:10:10;;;;;;;1.73;1.63;;;;;;;6.26;100.00;97065.31;4135148;28;20252;-45
2023/10/25 07:12:12;;;;;;;1.90;1.80;;;;;;;6.34;100.00;97057.50;4133438;28;20210;-45
2023/10/25 07:14:14;;;;;;;1.40;1.23;;;;;;;6.29;100.00;97059.38;4116203;28;20293;-45
2023/10/25 07:16:16;;;;;;;3.60;1.30;;;;;;;6.16;100.00;97043.50;4104517;28;20210;-47
2023/10/25 07:18:18;;;;;;;1.42;1.40;;;;;;;6.34;100.00;97046.66;4114383;28;20348;-45
2023/10/25 07:20:20;;;;;;;0.90;0.90;;;;;;;6.33;100.00;97039.59;4102809;28;20303;-45
2023/10/25 07:22:21;;;;;;;1.70;1.58;;;;;;;6.43;100.00;97042.38;4101362;28;20211;-45
2023/10/25 07:24:23;;;;;;;1.30;1.25;;;;;;;6.50;100.00;97042.16;4115650;28;20241;-45
2023/10/25 07:26:25;;;;;;;0.90;0.90;;;;;;;6.63;100.00;97041.72;4100841;28;20211;-45
2023/10/25 07:28:27;;;;;;;1.70;1.55;;;;;;;6.65;100.00;97031.41;4133481;28;20218;-45
2023/10/25 07:30:28;;;;;;;2.05;1.35;;;;;;;6.70;100.00;97040.38;4082547;28;20449;-46
2023/10/25 07:32:31;;;;;;;1.48;1.38;;;;;;;6.74;100.00;97040.69;4135155;28;20213;-45
2023/10/25 07:34:33;;;;;;;1.15;1.15;;;;;;;6.85;100.00;97045.13;4085857;28;20236;-45
2023/10/25 07:36:34;;;;;;;1.73;1.40;;;;;;;6.86;100.00;97046.75;4099662;28;20310;-45
2023/10/25 07:38:36;;;;;;;1.20;1.20;;;;;;;6.96;100.00;97044.09;4103057;28;20654;-44
2023/10/25 07:40:40;;;;;;;1.17;1.17;;;;;;;7.05;100.00;97037.06;4105500;28;20306;-45
2023/10/25 07:42:42;;;;;;;1.73;1.52;;;;;;;7.09;100.00;97030.84;4133795;28;20578;-45
2023/10/25 07:44:44;;;;;;;2.00;1.48;;;;;;;7.18;100.00;97020.28;4102700;28;20658;-45
2023/10/25 07:46:45;;;;;;;1.65;1.55;;;;;;;7.14;100.00;97013.72;4134148;28;20284;-45
2023/10/25 07:48:50;;;;;;;1.00;1.00;;;;;;;7.17;100.00;97011.28;4119405;28;20299;-44
2023/10/25 07:50:52;;;;;;;1.83;1.73;;;;;;;7.28;100.00;97006.75;4134733;28;20237;-45
2023/10/25 07:52:54;;;;;;;1.27;1.15;;;;;;;7.33;100.00;96999.41;4120792;28;20219;-45
2023/10/25 07:54:55;;;;;;;1.40;1.40;;;;;;;7.43;100.00;96991.25;4105026;28;20761;-46
2023/10/25 07:57:00;;;;;;;2.67;2.38;;;;;;;7.49;100.00;96983.94;4135436;28;20677;-45
2023/10/25 07:59:05;;;;;;;2.13;1.48;;;;;;;7.58;100.00;96988.59;4119350;28;20202;-45
2023/10/25 08:01:07;;;;;;;1.65;1.55;;;;;;;7.59;100.00;97001.13;4121181;28;20329;-45
2023/10/25 08:03:08;;;;;;;1.40;1.38;;;;;;;7.61;100.00;96998.13;4120320;28;20645;-45
2023/10/25 08:05:10;;;;;;;1.17;1.17;;;;;;;7.67;100.00;97007.94;4116271;28;20304;-45
2023/10/25 08:07:12;;;;;;;3.15;1.98;;;;;;;7.64;100.00;97003.03;4134820;28;20808;-45
2023/10/25 08:09:14;;;;;;;7.63;1.70;;;;;;;7.64;100.00;96998.41;4102595;28;20657;-46
2023/10/25 08:11:15;;;;;;;1.58;1.15;;;;;;;7.74;100.00;96997.59;4118348;28;20217;-45
2023/10/25 08:13:17;;;;;;;1.85;1.75;;;;;;;7.77;100.00;97002.53;4133725;28;20265;-46
2023/10/25 08:15:19;;;;;;;2.10;2.00;;;;;;;7.76;100.00;97000.88;4100215;28;20278;-45
2023/10/25 08:17:21;;;;;;;1.23;1.23;;;;;;;7.81;100.00;96990.81;4099961;28;20211;-45
2023/10/25 08:19:22;;;;;;;1.20;1.20;;;;;;;7.88;100.00;96982.41;4101250;28;20301;-47
2023/10/25 08:21:24;;;;;;;1.52;1.52;;;;;;;7.93;100.00;96985.09;4102993;28;21139;-45
2023/10/25 08:23:26;;;;;;;1.40;1.30;;;;;;;7.95;100.00;96980.22;4117997;28;20723;-45
2023/10/25 08:25:28;;;;;;;1.25;1.13;;;;;;;7.96;100.00;96979.13;4082323;28;20239;-45
2023/10/25 08:27:29;;;;;;;1.25;1.25;;;;;;;7.95;100.00;96980.22;4117036;28;20810;-45
2023/10/25 08:29:31;;;;;;;0.80;0.80;;;;;;;7.99;100.00;96973.97;4117222;28;20282;-45
2023/10/25 08:31:33;;;;;;;0.90;0.90;;;;;;;7.95;100.00;96972.06;4085429;28;20203;-45
2023/10/25 08:33:35;;;;;;;0.93;0.93;;;;;;;8.03;100.00;96971.50;4099096;28;20814;-45
2023/10/25 08:35:37;;;;;;;0.90;0.90;;;;;;;8.08;100.00;96972.31;4116702;28;20194;-45
2023/10/25 08:37:39;;;;;;;1.75;1.50;;;;;;;8.08;100.00;96966.88;4119362;28;20689;-45
2023/10/25 08:39:43;;;;;;;1.58;1.30;;;;;;;8.12;100.00;96965.25;4102246;28;20198;-45
2023/10/25 08:41:47;;;;;;;1.63;1.45;;;;;;;8.20;100.00;96961.19;4132414;28;20680;-45
2023/10/25 08:43:49;;;;;;;2.28;1.50;;;;;;;8.25;100.00;96950.28;4103579;28;20233;-45
2023/10/25 08:45:53;;;;;;;3.80;1.25;;;;;;;8.23;100.00;96957.94;4103937;28;20239;-44
2023/10/25 08:47:55;;;;;;;1.15;1.15;;;;;;;8.34;100.00;96948.66;4102472;28;20207;-44
2023/10/25 08:49:57;;;;;;;1.02;1.02;;;;;;;8.33;100.00;96957.91;4118893;28;20305;-44
2023/10/25 08:52:01;;;;;;;1.70;1.60;;;;;;;8.41;100.00;96954.66;4117920;28;20741;-44
2023/10/25 08:54:03;;;;;;;1.58;1.48;;;;;;;8.43;100.00;96941.56;4117572;28;20801;-44
2023/10/25 08:56:05;;;;;;;1.40;1.30;;;;;;;8.44;100.00;96951.38;4133276;28;20230;-45
2023/10/25 08:58:07;;;;;;;1.17;1.08;;;;;;;8.51;100.00;96944.56;4101415;28;20219;-44
2023/10/25 09:00:11;;;;;;;1.50;1.10;;;;;;;8.55;100.00;96939.38;4102544;28;20215;-44
2023/10/25 09:02:14;;;;;;;2.53;1.10;;;;;;;8.58;100.00;96942.34;4107162;28;20206;-43
2023/10/25 09:04:15;;;;;;;1.23;1.23;;;;;;;8.61;100.00;96944.50;4116924;28;20289;-44
2023/10/25 09:06:25;;;;;;;1.30;1.20;;;;;;;8.65;100.00;96942.06;4102114;28;20238;-45
2023/10/25 09:08:27;;;;;;;1.67;1.58;;;;;;;8.68;100.00;96933.34;4102966;28;20207;-44
2023/10/25 09:10:29;;;;;;;1.90;1.33;;;;;;;8.72;100.00;96937.13;4109056;28;20211;-44
2023/10/25 09:12:31;;;;;;;0.98;0.90;;;;;;;8.73;100.00;96930.56;4117858;28;20210;-43
2023/10/25 09:14:46;;;;;;;1.30;1.27;;;;;;;8.79;100.00;96930.28;4103113;28;20234;-45
2023/10/25 09:16:48;;;;;;;1.35;1.35;;;;;;;9.14;100.00;96932.09;4120067;28;20202;-44
2023/10/25 09:18:49;;;;;;;0.90;0.90;;;;;;;9.28;100.00;96927.66;4135161;28;20226;-44
2023/10/25 09:20:51;;;;;;;1.00;1.00;;;;;;;9.60;100.00;96919.81;4102308;28;20290;-44
2023/10/25 09:23:12;;;;;;;1.48;0.88;;;;;;;9.52;100.00;96909.47;4115800;28;20591;-43
2023/10/25 09:25:14;;;;;;;1.08;1.08;;;;;;;9.60;100.00;96908.88;4136174;28;20226;-44
2023/10/25 09:27:18;;;;;;;0.90;0.90;;;;;;;9.58;100.00;96911.09;4118755;28;20222;-43
2023/10/25 09:29:25;;;;;;;0.80;0.80;;;;;;;9.67;100.00;96893.03;4101657;28;20282;-44
2023/10/25 09:31:31;;;;;;;0.90;0.90;;;;;;;9.82;100.00;96890.16;4100898;28;20898;-44
2023/10/25 09:33:33;;;;;;;0.90;0.90;;;;;;;9.79;100.00;96896.19;4118932;28;20211;-43
2023/10/25 09:35:36;;;;;;;0.70;0.70;;;;;;;9.85;100.00;96879.50;4120486;28;21081;-43
2023/10/25 09:37:37;;;;;;;0.80;0.80;;;;;;;9.87;100.00;96871.00;4083169;28;20211;-44